Time;durP1;ratioP1;P1;durP2;ratioP2;P2;SDS_P1;SDS_P2;PMS_P1;PMS_P2;Temp;Humidity;BMP_temperature;BMP_pressure;BME280_temperature;BME280_humidity;BME280_pressure;Samples;Min_cycle;Max_cycle;Signal;HPM_P1;HPM_P2
2023/10/15 00:01:59;;;;;;;4.13;2.27;;;11.00;93.90;;;;;;5074499;28;20445;-57
2023/10/15 00:04:26;;;;;;;6.47;1.83;;;11.10;94.10;;;;;;5074504;28;20449;-57
2023/10/15 00:06:53;;;;;;;4.10;3.00;;;11.10;94.00;;;;;;5074438;28;20448;-57
2023/10/15 00:09:20;;;;;;;4.80;1.80;;;11.10;94.00;;;;;;5074026;28;20460;-56
2023/10/15 00:11:47;;;;;;;7.70;3.10;;;11.10;94.10;;;;;;5074194;28;20469;-57
2023/10/15 00:14:15;;;;;;;3.00;2.17;;;11.10;94.10;;;;;;5074215;28;20480;-56
2023/10/15 00:16:42;;;;;;;4.90;2.23;;;11.10;94.00;;;;;;5074282;28;20444;-57
2023/10/15 00:19:10;;;;;;;6.27;2.47;;;11.00;93.90;;;;;;5074177;28;20480;-57
2023/10/15 00:21:38;;;;;;;8.23;3.03;;;11.00;94.10;;;;;;5074045;28;20496;-56
2023/10/15 00:24:07;;;;;;;6.57;2.10;;;10.90;94.10;;;;;;5074134;28;20536;-57
2023/10/15 00:26:35;;;;;;;6.00;2.33;;;10.90;94.20;;;;;;5074082;28;20451;-57
2023/10/15 00:29:01;;;;;;;5.53;2.57;;;10.90;94.30;;;;;;5073958;28;20464;-57
2023/10/15 00:31:29;;;;;;;5.60;2.13;;;11.00;94.50;;;;;;5073929;28;20464;-57
2023/10/15 00:33:56;;;;;;;6.83;2.70;;;11.00;94.50;;;;;;5073909;28;20440;-57
2023/10/15 00:36:23;;;;;;;4.00;2.47;;;11.10;94.50;;;;;;5076428;28;20444;-57
2023/10/15 00:38:49;;;;;;;8.23;2.33;;;11.10;94.40;;;;;;5073798;28;20530;-57
2023/10/15 00:41:16;;;;;;;4.27;1.90;;;11.10;94.20;;;;;;5073926;28;20465;-57
2023/10/15 00:43:51;;;;;;;6.27;2.00;;;11.10;94.10;;;;;;5073926;28;20539;-57
2023/10/15 00:46:18;;;;;;;11.03;2.50;;;11.10;93.90;;;;;;5073752;28;20498;-57
2023/10/15 00:48:47;;;;;;;7.33;2.37;;;11.10;93.80;;;;;;5073167;28;20444;-57
2023/10/15 00:51:14;;;;;;;6.40;3.73;;;11.00;93.60;;;;;;5073685;28;20807;-57
2023/10/15 00:53:50;;;;;;;7.70;2.83;;;10.90;93.80;;;;;;5073858;28;20502;-57
2023/10/15 00:56:21;;;;;;;5.20;2.60;;;10.90;93.90;;;;;;5073695;28;20890;-57
2023/10/15 00:59:08;;;;;;;8.47;2.77;;;10.90;94.10;;;;;;5075677;28;20469;-57
2023/10/15 01:01:34;;;;;;;11.73;3.13;;;10.90;94.10;;;;;;5074671;28;20468;-57
2023/10/15 01:04:06;;;;;;;5.73;2.10;;;10.80;94.10;;;;;;5073835;28;20444;-57
2023/10/15 01:06:37;;;;;;;6.37;2.70;;;10.80;94.20;;;;;;5073701;28;20433;-57
2023/10/15 01:09:09;;;;;;;5.90;2.30;;;10.70;94.30;;;;;;5073475;28;20547;-57
2023/10/15 01:11:37;;;;;;;8.83;2.63;;;10.70;94.50;;;;;;5073411;28;20888;-57
2023/10/15 01:14:04;;;;;;;6.27;2.70;;;10.70;94.50;;;;;;5073457;28;20447;-57
2023/10/15 01:16:36;;;;;;;7.03;2.73;;;10.70;94.60;;;;;;5073420;28;20494;-57
2023/10/15 01:19:15;;;;;;;8.57;2.50;;;10.70;94.70;;;;;;5072995;28;20476;-57
2023/10/15 01:21:46;;;;;;;10.33;2.83;;;10.70;94.70;;;;;;5073421;28;20468;-57
2023/10/15 01:24:18;;;;;;;13.40;4.53;;;10.70;94.80;;;;;;5073338;28;20432;-57
2023/10/15 01:26:53;;;;;;;7.50;2.77;;;10.60;94.80;;;;;;5073291;28;20478;-57
2023/10/15 01:29:23;;;;;;;6.00;3.10;;;10.60;94.80;;;;;;5073037;28;20421;-57
2023/10/15 01:31:51;;;;;;;11.60;3.00;;;10.70;95.00;;;;;;5073250;28;20547;-56
2023/10/15 01:34:21;;;;;;;7.37;2.90;;;10.70;95.00;;;;;;5073217;28;20540;-56
2023/10/15 01:36:48;;;;;;;6.30;2.37;;;10.60;95.00;;;;;;5073156;28;20543;-57
2023/10/15 01:39:21;;;;;;;9.93;2.90;;;10.60;95.00;;;;;;5073124;28;20846;-57
2023/10/15 01:41:50;;;;;;;5.00;2.53;;;10.60;95.10;;;;;;5072694;28;21021;-57
2023/10/15 01:44:19;;;;;;;8.10;2.73;;;10.60;95.20;;;;;;5073302;28;20452;-57
2023/10/15 01:46:48;;;;;;;9.80;3.30;;;10.60;95.20;;;;;;5073017;28;20444;-57
2023/10/15 01:49:21;;;;;;;5.97;2.87;;;10.60;95.10;;;;;;5073011;28;20451;-57
2023/10/15 01:51:47;;;;;;;8.17;2.70;;;10.60;95.00;;;;;;5073035;28;20465;-56
2023/10/15 01:54:16;;;;;;;4.37;2.30;;;10.60;95.00;;;;;;5072965;28;20440;-56
2023/10/15 01:56:44;;;;;;;5.40;2.60;;;10.60;95.00;;;;;;5073021;28;20480;-57
2023/10/15 01:59:13;;;;;;;12.07;3.10;;;10.50;94.90;;;;;;5072670;28;20993;-57
2023/10/15 02:01:49;;;;;;;10.07;3.10;;;10.60;95.10;;;;;;5076382;28;20849;-57
2023/10/15 02:04:18;;;;;;;14.20;3.07;;;10.50;95.00;;;;;;5076867;28;20486;-56
2023/10/15 02:06:44;;;;;;;5.40;2.40;;;10.60;95.10;;;;;;5076673;28;20867;-57
2023/10/15 02:09:13;;;;;;;7.60;2.33;;;10.50;95.00;;;;;;5076419;28;20452;-57
2023/10/15 02:11:47;;;;;;;7.63;3.20;;;10.50;95.10;;;;;;5076542;28;20468;-57
2023/10/15 02:14:22;;;;;;;5.37;2.73;;;10.50;95.30;;;;;;5076534;28;20450;-57
2023/10/15 02:16:53;;;;;;;9.90;3.30;;;10.50;95.20;;;;;;5076513;28;20481;-57
2023/10/15 02:19:34;;;;;;;8.67;2.90;;;10.40;95.40;;;;;;5076423;28;20468;-57
2023/10/15 02:22:01;;;;;;;5.30;2.80;;;10.40;95.50;;;;;;5076462;28;20460;-56
2023/10/15 02:24:31;;;;;;;6.23;3.07;;;10.40;95.70;;;;;;5076409;28;20445;-57
2023/10/15 02:26:58;;;;;;;4.63;3.00;;;10.40;95.70;;;;;;5076300;28;20435;-57
2023/10/15 02:29:35;;;;;;;6.57;2.90;;;10.30;95.90;;;;;;5075944;28;20930;-57
2023/10/15 02:32:07;;;;;;;7.20;2.60;;;10.30;96.10;;;;;;5076067;28;20429;-57
2023/10/15 02:34:40;;;;;;;7.87;3.00;;;10.20;96.30;;;;;;5075810;28;20854;-57
2023/10/15 02:37:10;;;;;;;11.13;5.97;;;10.20;96.60;;;;;;5076090;28;20512;-57
2023/10/15 02:39:44;;;;;;;10.47;4.17;;;10.20;96.70;;;;;;5075618;28;20839;-57
2023/10/15 02:42:11;;;;;;;8.83;3.67;;;10.20;96.60;;;;;;5076042;28;20428;-57
2023/10/15 02:44:39;;;;;;;14.90;3.93;;;10.20;96.80;;;;;;5076028;28;20453;-57
2023/10/15 02:47:10;;;;;;;9.83;4.50;;;10.10;97.00;;;;;;5075669;28;20934;-57
2023/10/15 02:49:51;;;;;;;10.17;3.63;;;10.20;97.20;;;;;;5075836;28;20429;-57
2023/10/15 02:52:19;;;;;;;9.60;3.83;;;10.20;97.00;;;;;;5075564;28;20907;-57
2023/10/15 02:54:46;;;;;;;5.37;3.20;;;10.20;97.10;;;;;;5075787;28;20444;-57
2023/10/15 02:57:15;;;;;;;13.47;3.10;;;10.20;97.00;;;;;;5075811;28;20452;-57
2023/10/15 02:59:50;;;;;;;7.07;3.20;;;10.20;97.10;;;;;;5075553;28;20488;-57
2023/10/15 03:02:18;;;;;;;6.00;2.93;;;10.20;97.00;;;;;;5075504;28;20801;-57
2023/10/15 03:04:49;;;;;;;9.37;3.77;;;10.20;96.80;;;;;;5075680;28;20477;-57
2023/10/15 03:07:19;;;;;;;8.17;2.30;;;10.30;96.90;;;;;;5075658;28;20461;-57
2023/10/15 03:09:48;;;;;;;6.13;3.43;;;10.20;96.90;;;;;;5075258;28;20453;-57
2023/10/15 03:12:16;;;;;;;6.90;2.80;;;10.20;97.00;;;;;;5074990;28;20449;-57
2023/10/15 03:14:45;;;;;;;5.67;2.67;;;10.20;97.00;;;;;;5075759;28;20448;-57
2023/10/15 03:17:14;;;;;;;10.33;3.20;;;10.20;97.00;;;;;;5075395;28;20444;-55
2023/10/15 03:19:42;;;;;;;10.67;3.20;;;10.20;97.00;;;;;;5075209;28;20488;-55
2023/10/15 03:22:12;;;;;;;6.43;3.27;;;10.10;97.20;;;;;;5075301;28;20480;-55
2023/10/15 03:24:43;;;;;;;12.90;2.70;;;10.10;97.50;;;;;;5075338;28;20810;-55
2023/10/15 03:27:11;;;;;;;5.83;2.30;;;10.20;97.50;;;;;;5075336;28;20503;-56
2023/10/15 03:29:40;;;;;;;9.03;2.87;;;10.20;97.20;;;;;;5075016;28;20440;-56
2023/10/15 03:32:12;;;;;;;5.73;3.10;;;10.10;97.10;;;;;;5075103;28;20859;-56
2023/10/15 03:34:42;;;;;;;11.30;2.80;;;10.10;97.40;;;;;;5075884;28;20437;-56
2023/10/15 03:37:13;;;;;;;5.83;2.90;;;10.10;97.50;;;;;;5075537;28;20433;-57
2023/10/15 03:39:54;;;;;;;7.93;3.30;;;10.10;97.90;;;;;;5074858;28;20472;-57
2023/10/15 03:42:26;;;;;;;7.73;2.80;;;10.10;98.20;;;;;;5074918;28;20532;-56
2023/10/15 03:44:59;;;;;;;5.80;2.20;;;10.10;98.50;;;;;;5074829;28;20432;-55
2023/10/15 03:47:27;;;;;;;6.73;2.47;;;10.10;98.80;;;;;;5074819;28;20487;-55
2023/10/15 03:49:55;;;;;;;6.63;2.77;;;10.20;98.70;;;;;;5074707;28;20460;-56
2023/10/15 03:52:22;;;;;;;10.30;3.47;;;10.30;98.70;;;;;;5074422;28;20456;-56
2023/10/15 03:54:49;;;;;;;6.53;3.10;;;10.30;98.50;;;;;;5075446;28;20440;-56
2023/10/15 03:57:18;;;;;;;5.57;3.00;;;10.30;98.40;;;;;;5074599;28;20448;-57
2023/10/15 03:59:51;;;;;;;6.97;2.93;;;10.40;98.40;;;;;;5074178;28;20476;-57
2023/10/15 04:02:25;;;;;;;6.47;3.17;;;10.50;98.30;;;;;;5074234;28;20926;-57
2023/10/15 04:05:07;;;;;;;6.30;2.80;;;10.50;98.20;;;;;;5074444;28;20435;-57
2023/10/15 04:07:38;;;;;;;3.77;2.40;;;10.60;98.00;;;;;;5074402;28;20433;-56
2023/10/15 04:10:06;;;;;;;5.43;3.00;;;10.60;97.90;;;;;;5073840;28;20481;-56
2023/10/15 04:12:34;;;;;;;5.27;2.90;;;10.60;97.80;;;;;;5074533;28;20445;-57
2023/10/15 04:15:01;;;;;;;7.73;2.60;;;10.60;97.90;;;;;;5074451;28;20451;-56
2023/10/15 04:17:29;;;;;;;6.03;2.77;;;10.60;97.70;;;;;;5074327;28;20445;-57
2023/10/15 04:19:58;;;;;;;5.77;3.10;;;10.60;97.70;;;;;;5074136;28;20858;-57
2023/10/15 04:22:25;;;;;;;8.10;3.20;;;10.60;97.60;;;;;;5073295;28;20449;-57
2023/10/15 04:24:51;;;;;;;14.43;2.83;;;10.60;97.60;;;;;;5073788;28;20988;-55
2023/10/15 04:27:22;;;;;;;3.90;2.40;;;10.60;97.50;;;;;;5074053;28;20527;-55
2023/10/15 04:29:52;;;;;;;3.43;1.23;;;10.40;96.60;;;;;;5074025;28;20459;-55
2023/10/15 04:32:28;;;;;;;2.43;1.30;;;10.30;94.70;;;;;;5073763;28;20864;-55
2023/10/15 04:35:01;;;;;;;1.93;1.57;;;10.20;95.80;;;;;;5074044;28;20436;-56
2023/10/15 04:37:34;;;;;;;1.67;1.30;;;10.20;95.80;;;;;;5073725;28;20906;-56
2023/10/15 04:40:01;;;;;;;4.60;1.77;;;10.10;95.40;;;;;;5073920;28;20512;-57
2023/10/15 04:42:30;;;;;;;2.03;1.77;;;10.00;95.90;;;;;;5073800;28;20444;-57
2023/10/15 04:44:59;;;;;;;4.70;2.20;;;10.00;96.70;;;;;;5073855;28;20464;-57
2023/10/15 04:47:28;;;;;;;5.83;2.13;;;10.00;97.30;;;;;;5073740;28;20822;-57
2023/10/15 04:49:57;;;;;;;3.93;2.30;;;10.00;97.60;;;;;;5073887;28;20472;-57
2023/10/15 04:52:24;;;;;;;3.57;1.97;;;10.10;97.60;;;;;;5073740;28;20445;-57
2023/10/15 04:54:55;;;;;;;9.17;2.47;;;10.10;98.00;;;;;;5073338;28;20814;-57
2023/10/15 04:57:24;;;;;;;8.90;2.43;;;10.10;98.20;;;;;;5073633;28;20436;-56
2023/10/15 04:59:50;;;;;;;2.83;1.83;;;10.10;98.30;;;;;;5073456;28;20488;-56
2023/10/15 05:02:18;;;;;;;5.80;2.37;;;10.20;98.50;;;;;;5073610;28;20452;-56
2023/10/15 05:04:44;;;;;;;3.57;2.20;;;10.20;98.50;;;;;;5073504;28;20447;-56
2023/10/15 05:07:15;;;;;;;3.20;2.43;;;10.30;98.50;;;;;;5073500;28;20445;-56
2023/10/15 05:09:44;;;;;;;7.50;2.30;;;10.30;98.40;;;;;;5073085;28;20482;-56
2023/10/15 05:12:13;;;;;;;5.17;2.50;;;10.30;98.50;;;;;;5073487;28;20536;-56
2023/10/15 05:14:40;;;;;;;4.67;2.97;;;10.40;98.70;;;;;;5073387;28;20452;-57
2023/10/15 05:17:07;;;;;;;7.23;2.37;;;10.50;98.60;;;;;;5073269;28;20451;-55
2023/10/15 05:19:33;;;;;;;9.30;2.37;;;10.50;98.30;;;;;;5072780;28;20480;-55
2023/10/15 05:22:00;;;;;;;5.23;2.40;;;10.50;98.40;;;;;;5073468;28;20453;-55
2023/10/15 05:24:27;;;;;;;3.30;1.87;;;10.50;98.60;;;;;;5072986;28;20444;-56
2023/10/15 05:26:54;;;;;;;4.00;2.70;;;10.60;98.60;;;;;;5073350;28;20445;-56
2023/10/15 05:29:23;;;;;;;6.07;3.40;;;10.60;98.60;;;;;;5073309;28;20437;-56
2023/10/15 05:31:50;;;;;;;7.90;4.00;;;10.60;98.60;;;;;;5073187;28;20809;-57
2023/10/15 05:34:17;;;;;;;3.23;2.93;;;10.60;98.50;;;;;;5075085;28;20444;-57
2023/10/15 05:36:43;;;;;;;7.47;4.23;;;10.60;98.40;;;;;;5077419;28;20795;-56
2023/10/15 05:39:10;;;;;;;3.80;3.50;;;10.60;98.30;;;;;;5077344;28;20440;-55
2023/10/15 05:41:37;;;;;;;6.27;4.00;;;10.60;98.20;;;;;;5077153;28;20475;-55
2023/10/15 05:44:04;;;;;;;6.23;3.83;;;10.60;98.40;;;;;;5076784;28;20449;-55
2023/10/15 05:46:32;;;;;;;5.10;4.30;;;10.60;98.50;;;;;;5077096;28;20448;-55
2023/10/15 05:49:00;;;;;;;4.93;4.03;;;10.60;98.50;;;;;;5077132;28;20471;-56
2023/10/15 05:51:27;;;;;;;5.43;3.83;;;10.60;98.40;;;;;;5076897;28;20495;-55
2023/10/15 05:53:54;;;;;;;3.07;2.77;;;10.60;98.30;;;;;;5076646;28;21008;-56
2023/10/15 05:56:22;;;;;;;4.07;2.17;;;10.60;98.20;;;;;;5076910;28;20440;-56
2023/10/15 05:58:50;;;;;;;4.20;1.80;;;10.60;97.90;;;;;;5076836;28;20483;-55
2023/10/15 06:01:16;;;;;;;1.60;1.50;;;10.50;97.50;;;;;;5076657;28;20484;-55
2023/10/15 06:03:46;;;;;;;1.50;1.13;;;10.50;97.20;;;;;;5076533;28;20953;-55
2023/10/15 06:06:13;;;;;;;1.67;0.73;;;10.40;96.80;;;;;;5076805;28;20436;-56
2023/10/15 06:08:40;;;;;;;1.43;0.90;;;10.30;96.70;;;;;;5076460;28;20448;-56
2023/10/15 06:11:06;;;;;;;1.47;0.97;;;10.20;96.90;;;;;;5076601;28;20461;-56
2023/10/15 06:13:33;;;;;;;1.20;1.10;;;10.20;97.00;;;;;;5076265;28;20444;-56
2023/10/15 06:16:00;;;;;;;2.73;1.03;;;10.20;97.10;;;;;;5076614;28;20523;-56
2023/10/15 06:18:27;;;;;;;1.87;0.80;;;10.20;97.30;;;;;;5076581;28;20451;-56
2023/10/15 06:20:55;;;;;;;2.17;0.87;;;10.20;97.10;;;;;;5076021;28;20487;-56
2023/10/15 06:23:22;;;;;;;0.90;0.70;;;10.20;97.00;;;;;;5076407;28;20451;-57
2023/10/15 06:25:49;;;;;;;2.00;1.23;;;10.20;96.90;;;;;;5076472;28;20441;-57
2023/10/15 06:28:16;;;;;;;0.60;0.60;;;10.10;96.80;;;;;;5076306;28;20444;-57
2023/10/15 06:30:43;;;;;;;4.00;0.90;;;10.10;96.90;;;;;;5076195;28;20471;-56
2023/10/15 06:33:11;;;;;;;0.60;0.60;;;10.10;97.10;;;;;;5076250;28;20455;-57
2023/10/15 06:35:40;;;;;;;0.80;0.70;;;10.20;97.20;;;;;;5075845;28;20452;-57
2023/10/15 06:38:08;;;;;;;2.30;1.10;;;10.20;97.20;;;;;;5075836;28;20841;-57
2023/10/15 06:40:38;;;;;;;1.30;1.03;;;10.20;97.20;;;;;;5076086;28;20521;-57
2023/10/15 06:43:04;;;;;;;2.00;0.80;;;10.30;97.10;;;;;;5076995;28;20436;-57
2023/10/15 06:45:32;;;;;;;1.23;1.13;;;10.30;97.00;;;;;;5074746;28;20961;-57
2023/10/15 06:48:00;;;;;;;1.23;1.13;;;10.30;96.70;;;;;;5075937;28;20480;-57
2023/10/15 06:50:27;;;;;;;1.47;0.83;;;10.20;96.40;;;;;;5075823;28;20468;-57
2023/10/15 06:52:54;;;;;;;1.53;0.87;;;10.30;96.30;;;;;;5075888;28;20445;-57
2023/10/15 06:55:22;;;;;;;2.27;1.20;;;10.30;96.50;;;;;;5075807;28;20497;-57
2023/10/15 06:57:49;;;;;;;2.20;0.97;;;10.30;96.50;;;;;;5075589;28;20448;-57
2023/10/15 07:00:22;;;;;;;13.53;6.20;;;10.30;96.60;;;;;;5075606;28;20488;-57
2023/10/15 07:02:49;;;;;;;10.73;3.90;;;10.40;96.60;;;;;;5075568;28;20464;-57
2023/10/15 07:05:17;;;;;;;5.13;2.73;;;10.40;96.20;;;;;;5075719;28;20441;-57
2023/10/15 07:07:45;;;;;;;2.37;1.53;;;10.40;96.20;;;;;;5075268;28;20954;-57
2023/10/15 07:10:15;;;;;;;1.63;1.03;;;10.40;96.30;;;;;;5075169;28;21024;-57
2023/10/15 07:12:45;;;;;;;4.90;1.40;;;10.40;96.50;;;;;;5075713;28;20483;-57
2023/10/15 07:15:13;;;;;;;1.53;1.20;;;10.40;96.90;;;;;;5075937;28;20437;-57
2023/10/15 07:17:40;;;;;;;2.10;1.40;;;10.40;96.40;;;;;;5075566;28;20451;-57
2023/10/15 07:20:14;;;;;;;1.60;1.20;;;10.50;96.30;;;;;;5075867;28;20861;-57
2023/10/15 07:22:42;;;;;;;2.60;1.70;;;10.60;96.50;;;;;;5075557;28;20866;-57
2023/10/15 07:25:09;;;;;;;2.20;1.73;;;10.60;96.60;;;;;;5075369;28;20469;-57
2023/10/15 07:27:36;;;;;;;3.60;2.13;;;10.70;96.70;;;;;;5075303;28;20449;-57
2023/10/15 07:30:07;;;;;;;3.23;2.27;;;10.70;96.10;;;;;;5075267;28;20831;-57
2023/10/15 07:32:35;;;;;;;4.07;2.87;;;10.80;96.20;;;;;;5075177;28;20457;-57
2023/10/15 07:35:02;;;;;;;3.87;3.20;;;10.80;96.40;;;;;;5075172;28;20444;-57
2023/10/15 07:37:29;;;;;;;3.47;3.17;;;10.80;96.30;;;;;;5075045;28;20483;-57
2023/10/15 07:39:56;;;;;;;3.60;2.70;;;10.80;96.60;;;;;;5074569;28;21076;-56
2023/10/15 07:42:23;;;;;;;2.80;2.40;;;10.80;96.90;;;;;;5075149;28;20464;-56
2023/10/15 07:44:49;;;;;;;8.10;3.10;;;10.90;97.00;;;;;;5074906;28;20514;-56
2023/10/15 07:47:18;;;;;;;4.93;4.10;;;11.00;97.30;;;;;;5075354;28;20432;-56
2023/10/15 07:49:45;;;;;;;3.60;3.30;;;11.10;96.60;;;;;;5074352;28;20444;-57
2023/10/15 07:52:12;;;;;;;4.23;3.40;;;11.20;96.60;;;;;;5074750;28;20535;-57
2023/10/15 07:54:38;;;;;;;4.03;3.63;;;11.10;96.70;;;;;;5074631;28;20455;-57
2023/10/15 07:57:07;;;;;;;4.20;3.80;;;11.10;96.90;;;;;;5074651;28;20494;-56
2023/10/15 07:59:34;;;;;;;5.80;4.00;;;11.10;97.10;;;;;;5074558;28;20539;-56
2023/10/15 08:02:00;;;;;;;4.23;3.83;;;11.10;97.40;;;;;;5074488;28;20480;-56
2023/10/15 08:04:29;;;;;;;4.03;3.73;;;11.10;97.60;;;;;;5074510;28;20498;-57
2023/10/15 08:06:55;;;;;;;6.60;4.17;;;11.10;97.70;;;;;;5074504;28;20464;-56
2023/10/15 08:09:25;;;;;;;5.77;3.80;;;11.20;97.60;;;;;;5073960;28;20448;-56
2023/10/15 08:11:52;;;;;;;4.83;4.00;;;11.20;97.40;;;;;;5073927;28;20982;-57
2023/10/15 08:14:19;;;;;;;7.40;4.23;;;11.20;97.00;;;;;;5074361;28;20480;-57
2023/10/15 08:16:46;;;;;;;5.17;3.97;;;11.20;97.20;;;;;;5073948;28;20962;-57
2023/10/15 08:19:13;;;;;;;4.10;3.10;;;11.20;97.30;;;;;;5074306;28;20445;-57
2023/10/15 08:21:41;;;;;;;3.67;3.47;;;11.20;97.10;;;;;;5074042;28;20489;-57
2023/10/15 08:24:09;;;;;;;6.50;3.50;;;11.20;97.00;;;;;;5074078;28;20444;-57
2023/10/15 08:26:37;;;;;;;3.47;3.00;;;11.10;96.80;;;;;;5074195;28;20437;-56
2023/10/15 08:29:04;;;;;;;4.47;2.63;;;11.00;96.90;;;;;;5074547;28;20444;-55
2023/10/15 08:31:31;;;;;;;2.90;2.70;;;11.00;97.30;;;;;;5075719;28;20460;-55
2023/10/15 08:33:59;;;;;;;4.73;3.20;;;10.90;97.30;;;;;;5075513;28;20444;-55
2023/10/15 08:36:25;;;;;;;3.60;3.10;;;10.90;97.50;;;;;;5075742;28;20827;-56
2023/10/15 08:38:53;;;;;;;3.67;2.83;;;11.00;97.70;;;;;;5074590;28;20444;-56
2023/10/15 08:41:22;;;;;;;2.93;2.60;;;11.00;97.70;;;;;;5075605;28;20539;-56
2023/10/15 08:43:51;;;;;;;4.77;2.80;;;11.10;97.90;;;;;;5075635;28;20518;-56
2023/10/15 08:46:22;;;;;;;2.60;2.30;;;11.20;97.60;;;;;;5075848;28;20437;-57
2023/10/15 08:48:51;;;;;;;4.63;2.93;;;11.20;97.40;;;;;;5074755;28;20433;-57
2023/10/15 08:51:21;;;;;;;2.97;2.67;;;11.30;97.00;;;;;;5074536;28;20531;-57
2023/10/15 08:53:48;;;;;;;4.10;2.33;;;11.30;97.10;;;;;;5074350;28;20817;-57
2023/10/15 08:56:20;;;;;;;3.13;2.83;;;11.40;97.20;;;;;;5074231;28;20444;-57
2023/10/15 08:58:52;;;;;;;4.20;2.73;;;11.40;97.10;;;;;;5073874;28;20429;-57
2023/10/15 09:01:19;;;;;;;4.10;2.30;;;11.40;96.90;;;;;;5073387;28;20495;-57
2023/10/15 09:03:45;;;;;;;2.67;2.27;;;11.40;96.80;;;;;;5073641;28;20444;-57
2023/10/15 09:06:13;;;;;;;8.43;2.43;;;11.50;96.70;;;;;;5073461;28;20445;-57
2023/10/15 09:08:41;;;;;;;3.13;2.50;;;11.50;96.40;;;;;;5072811;28;20455;-57
2023/10/15 09:11:10;;;;;;;4.70;2.90;;;11.60;96.50;;;;;;5073609;28;20468;-57
2023/10/15 09:13:39;;;;;;;3.90;2.70;;;11.70;96.30;;;;;;5073312;28;20444;-57
2023/10/15 09:16:08;;;;;;;3.00;2.70;;;11.80;96.60;;;;;;5073405;28;20445;-57
2023/10/15 09:18:36;;;;;;;5.83;2.70;;;11.80;96.40;;;;;;5073460;28;20543;-58
2023/10/15 09:21:04;;;;;;;2.70;2.50;;;11.70;96.10;;;;;;5073284;28;20484;-58
2023/10/15 09:23:35;;;;;;;3.03;2.37;;;11.70;96.30;;;;;;5073249;28;20444;-58
2023/10/15 09:26:03;;;;;;;5.07;2.60;;;11.70;95.80;;;;;;5073336;28;20439;-58
2023/10/15 09:28:31;;;;;;;5.63;2.43;;;11.70;95.50;;;;;;5073227;28;20819;-57
2023/10/15 09:31:06;;;;;;;4.03;2.70;;;11.70;96.10;;;;;;5073289;28;20486;-58
2023/10/15 09:33:34;;;;;;;4.07;2.40;;;11.90;96.20;;;;;;5073280;28;20444;-58
2023/10/15 09:36:02;;;;;;;7.10;2.27;;;11.90;95.30;;;;;;5073359;28;20440;-58
2023/10/15 09:38:31;;;;;;;3.27;2.53;;;12.00;94.80;;;;;;5073302;28;20957;-58
2023/10/15 09:40:58;;;;;;;3.53;2.57;;;11.90;94.50;;;;;;5072667;28;21005;-58
2023/10/15 09:43:26;;;;;;;3.90;2.63;;;11.80;94.70;;;;;;5073134;28;20516;-58
2023/10/15 09:45:54;;;;;;;4.60;2.63;;;11.70;94.70;;;;;;5073032;28;20436;-58
2023/10/15 09:48:23;;;;;;;4.80;2.30;;;11.70;95.30;;;;;;5073120;28;20876;-58
2023/10/15 09:50:52;;;;;;;3.57;2.27;;;11.50;95.20;;;;;;5072611;28;20461;-58
2023/10/15 09:53:21;;;;;;;4.10;2.77;;;11.50;95.60;;;;;;5073043;28;20494;-58
2023/10/15 09:55:49;;;;;;;3.30;2.33;;;11.50;95.90;;;;;;5072937;28;20476;-58
2023/10/15 09:58:17;;;;;;;2.90;2.70;;;11.50;95.80;;;;;;5072714;28;20942;-58
2023/10/15 10:00:46;;;;;;;3.67;2.53;;;11.60;95.80;;;;;;5073108;28;20560;-57
2023/10/15 10:03:37;;;;;;;5.30;2.83;;;11.60;95.60;;;;;;5073080;28;20447;-58
2023/10/15 10:06:15;;;;;;;3.07;2.50;;;11.70;95.60;;;;;;5072821;28;20907;-58
2023/10/15 10:08:59;;;;;;;5.43;3.03;;;11.80;95.50;;;;;;5072816;28;20527;-58
2023/10/15 10:11:39;;;;;;;4.70;2.77;;;12.00;95.30;;;;;;5073676;28;20461;-58
2023/10/15 10:14:29;;;;;;;3.00;2.30;;;12.10;94.90;;;;;;5072874;28;20500;-58
2023/10/15 10:16:56;;;;;;;4.13;2.57;;;12.20;95.00;;;;;;5072855;28;20436;-58
2023/10/15 10:19:27;;;;;;;4.30;2.70;;;12.30;94.90;;;;;;5072693;28;20955;-58
2023/10/15 10:21:54;;;;;;;2.83;2.50;;;12.40;94.60;;;;;;5075453;28;20551;-57
2023/10/15 10:24:23;;;;;;;4.80;2.70;;;12.50;93.90;;;;;;5076840;28;20491;-58
2023/10/15 10:26:53;;;;;;;3.23;2.63;;;12.50;93.70;;;;;;5076666;28;20452;-58
2023/10/15 10:29:25;;;;;;;2.73;2.00;;;12.50;93.20;;;;;;5076251;28;20801;-58
2023/10/15 10:31:54;;;;;;;3.53;2.50;;;12.40;92.70;;;;;;5076137;28;20828;-58
2023/10/15 10:34:30;;;;;;;3.83;2.77;;;12.40;93.10;;;;;;5076219;28;20934;-58
2023/10/15 10:36:57;;;;;;;3.37;2.10;;;12.50;93.80;;;;;;5076714;28;20439;-58
2023/10/15 10:39:25;;;;;;;1.93;1.47;;;12.60;94.00;;;;;;5076647;28;20448;-57
2023/10/15 10:41:54;;;;;;;4.00;1.97;;;12.70;93.80;;;;;;5076394;28;20484;-57
2023/10/15 10:44:38;;;;;;;3.90;1.87;;;12.90;93.40;;;;;;5076106;28;20452;-57
2023/10/15 10:47:19;;;;;;;3.97;2.13;;;12.90;92.50;;;;;;5075091;28;20451;-58
2023/10/15 10:49:56;;;;;;;3.47;2.00;;;12.80;91.80;;;;;;5076571;28;20437;-57
2023/10/15 10:52:30;;;;;;;1.50;1.40;;;12.70;91.90;;;;;;5076044;28;20451;-57
2023/10/15 10:55:30;;;;;;;4.10;1.60;;;12.60;91.00;;;;;;5075721;28;20929;-58
2023/10/15 10:57:57;;;;;;;4.33;1.47;;;12.60;91.00;;;;;;5076156;28;20519;-58
2023/10/15 11:00:23;;;;;;;3.93;2.57;;;12.70;91.20;;;;;;5075865;28;20467;-58
2023/10/15 11:02:50;;;;;;;2.97;1.73;;;12.80;90.60;;;;;;5075380;28;20876;-58
2023/10/15 11:05:18;;;;;;;2.20;1.67;;;13.00;91.20;;;;;;5075407;28;20950;-58
2023/10/15 11:07:47;;;;;;;2.97;2.00;;;13.20;89.80;;;;;;5076216;28;20455;-58
2023/10/15 11:10:14;;;;;;;2.47;2.10;;;13.50;89.20;;;;;;5075420;28;20469;-58
2023/10/15 11:12:41;;;;;;;3.47;2.00;;;13.90;89.30;;;;;;5075472;28;20544;-58
2023/10/15 11:15:09;;;;;;;2.70;2.17;;;14.50;87.70;;;;;;5075115;28;20447;-58
2023/10/15 11:17:35;;;;;;;2.30;1.90;;;14.60;85.40;;;;;;5075452;28;20794;-58
2023/10/15 11:20:04;;;;;;;2.47;1.33;;;14.80;83.30;;;;;;5075492;28;20839;-58
2023/10/15 11:22:32;;;;;;;1.90;1.17;;;15.40;80.90;;;;;;5075727;28;20491;-58
2023/10/15 11:25:00;;;;;;;2.67;1.30;;;16.20;77.70;;;;;;5075598;28;20498;-58
2023/10/15 11:27:27;;;;;;;1.50;0.97;;;16.80;75.20;;;;;;5075568;28;20453;-58
2023/10/15 11:29:54;;;;;;;1.53;0.87;;;17.20;70.20;;;;;;5075428;28;20996;-58
2023/10/15 11:32:21;;;;;;;1.73;1.13;;;17.70;66.30;;;;;;5075279;28;20444;-58
2023/10/15 11:34:48;;;;;;;4.17;1.50;;;18.20;65.20;;;;;;5075086;28;20965;-58
2023/10/15 11:37:16;;;;;;;3.33;1.63;;;18.50;62.70;;;;;;5074845;28;20812;-58
2023/10/15 11:39:47;;;;;;;2.73;1.27;;;18.40;58.90;;;;;;5074681;28;20969;-58
2023/10/15 11:42:15;;;;;;;1.87;1.27;;;18.20;59.90;;;;;;5075396;28;20475;-58
2023/10/15 11:44:43;;;;;;;1.90;1.20;;;18.10;60.10;;;;;;5074990;28;20547;-57
2023/10/15 11:47:15;;;;;;;2.57;1.30;;;17.60;61.20;;;;;;5074824;28;20440;-58
2023/10/15 11:49:43;;;;;;;1.97;1.00;;;17.20;63.10;;;;;;5075582;28;20528;-58
2023/10/15 11:52:14;;;;;;;3.77;1.30;;;16.80;64.40;;;;;;5074793;28;20479;-58
2023/10/15 11:54:43;;;;;;;1.67;1.10;;;16.80;66.20;;;;;;5074430;28;20922;-58
2023/10/15 11:57:16;;;;;;;1.37;0.90;;;16.90;65.10;;;;;;5074695;28;20448;-58
2023/10/15 11:59:43;;;;;;;3.77;1.03;;;17.20;63.50;;;;;;5074606;28;20516;-58
2023/10/15 12:02:11;;;;;;;3.13;0.83;;;17.80;61.70;;;;;;5074505;28;20559;-58
2023/10/15 12:04:38;;;;;;;2.47;1.00;;;18.10;58.50;;;;;;5074516;28;20547;-58
2023/10/15 12:07:06;;;;;;;1.80;0.60;;;18.30;58.00;;;;;;5074520;28;20472;-58
2023/10/15 12:09:39;;;;;;;2.37;0.93;;;18.10;57.00;;;;;;5074078;28;20460;-58
2023/10/15 12:12:07;;;;;;;2.33;1.20;;;17.60;58.30;;;;;;5074868;28;20425;-58
2023/10/15 12:14:35;;;;;;;1.30;0.80;;;17.90;60.20;;;;;;5074537;28;20453;-58
2023/10/15 12:17:04;;;;;;;1.30;1.10;;;18.70;59.40;;;;;;5074319;28;20821;-59
2023/10/15 12:19:30;;;;;;;2.20;0.80;;;19.40;55.60;;;;;;5074162;28;20447;-58
2023/10/15 12:21:58;;;;;;;2.00;1.00;;;20.20;53.40;;;;;;5074064;28;20481;-58
2023/10/15 12:24:25;;;;;;;2.30;1.30;;;20.50;51.00;;;;;;5074209;28;20448;-58
2023/10/15 12:26:51;;;;;;;3.70;1.00;;;20.90;50.40;;;;;;5074063;28;20445;-58
2023/10/15 12:29:28;;;;;;;2.30;1.07;;;21.40;48.90;;;;;;5074065;28;20440;-58
2023/10/15 12:31:56;;;;;;;3.23;0.80;;;21.30;48.20;;;;;;5073657;28;20902;-58
2023/10/15 12:34:24;;;;;;;3.63;1.17;;;20.70;48.60;;;;;;5073942;28;20444;-58
2023/10/15 12:36:52;;;;;;;2.30;0.80;;;19.90;50.20;;;;;;5073940;28;20492;-58
2023/10/15 12:39:21;;;;;;;2.80;1.17;;;19.40;51.60;;;;;;5073996;28;20547;-58
2023/10/15 12:41:50;;;;;;;2.30;0.80;;;19.70;51.90;;;;;;5073882;28;20990;-57
2023/10/15 12:44:17;;;;;;;2.40;1.07;;;19.90;50.80;;;;;;5073472;28;20449;-56
2023/10/15 12:46:44;;;;;;;2.43;0.90;;;19.70;50.90;;;;;;5073900;28;20441;-56
2023/10/15 12:49:13;;;;;;;1.83;0.90;;;19.50;53.10;;;;;;5073857;28;20451;-56
2023/10/15 12:51:39;;;;;;;2.93;0.80;;;19.70;54.20;;;;;;5073640;28;20586;-56
2023/10/15 12:54:06;;;;;;;3.07;0.80;;;19.90;51.80;;;;;;5073381;28;20498;-56
2023/10/15 12:56:33;;;;;;;3.27;0.90;;;20.80;51.10;;;;;;5073636;28;20494;-57